Time;durP1;ratioP1;P1;durP2;ratioP2;P2;SDS_P1;SDS_P2;PMS_P1;PMS_P2;Temp;Humidity;BMP_temperature;BMP_pressure;BME280_temperature;BME280_humidity;BME280_pressure;Samples;Min_cycle;Max_cycle;Signal;HPM_P1;HPM_P2
2022/12/24 00:00:57;;;;;;;13.00;1.85;;;11.10;99.90;;;;;;5013429;28;20022;-68
2022/12/24 00:03:22;;;;;;;18.23;2.90;;;11.10;99.90;;;;;;5013315;28;20034;-68
2022/12/24 00:05:48;;;;;;;12.10;1.77;;;11.10;99.90;;;;;;5012260;28;20109;-68
2022/12/24 00:08:13;;;;;;;12.55;2.10;;;11.00;99.90;;;;;;5011977;28;20061;-68
2022/12/24 00:10:39;;;;;;;9.30;1.60;;;11.00;99.90;;;;;;5012076;28;20029;-68
2022/12/24 00:13:04;;;;;;;11.93;1.40;;;11.00;99.90;;;;;;5012782;28;20358;-68
2022/12/24 00:15:30;;;;;;;6.85;1.15;;;11.00;99.90;;;;;;5013495;28;20026;-68
2022/12/24 00:17:56;;;;;;;9.98;1.73;;;11.10;99.90;;;;;;5013406;28;20018;-68
2022/12/24 00:20:23;;;;;;;14.52;2.63;;;11.00;99.90;;;;;;5013148;28;20441;-68
2022/12/24 00:22:48;;;;;;;14.75;1.75;;;11.10;99.90;;;;;;5012228;28;20416;-68
2022/12/24 00:25:14;;;;;;;11.15;1.60;;;11.00;99.90;;;;;;5013301;28;20033;-68
2022/12/24 00:27:39;;;;;;;10.80;2.20;;;11.00;99.90;;;;;;5011776;28;20041;-68
2022/12/24 00:30:06;;;;;;;11.85;2.35;;;11.00;99.90;;;;;;5012977;28;20022;-68
2022/12/24 00:32:31;;;;;;;8.77;2.03;;;11.00;99.90;;;;;;5011967;28;20028;-68
2022/12/24 00:34:57;;;;;;;8.52;1.80;;;11.00;99.90;;;;;;5013093;28;20097;-68
2022/12/24 00:37:22;;;;;;;8.52;1.77;;;11.00;99.90;;;;;;5013241;28;20113;-68
2022/12/24 00:39:48;;;;;;;13.73;2.17;;;10.90;99.90;;;;;;5011568;28;20112;-68
2022/12/24 00:42:13;;;;;;;9.48;1.88;;;10.80;99.90;;;;;;5012729;28;20025;-68
2022/12/24 00:44:39;;;;;;;12.38;2.35;;;10.80;99.90;;;;;;4997989;28;20053;-68
2022/12/24 00:47:04;;;;;;;11.90;1.70;;;10.80;99.90;;;;;;4995694;28;20134;-68
2022/12/24 00:49:30;;;;;;;10.68;1.70;;;10.80;99.90;;;;;;4996929;28;20034;-68
2022/12/24 00:51:55;;;;;;;8.80;2.15;;;10.70;99.90;;;;;;4995713;28;20034;-68
2022/12/24 00:54:21;;;;;;;15.75;3.10;;;10.80;99.90;;;;;;4995595;28;20023;-68
2022/12/24 00:56:46;;;;;;;8.93;1.90;;;10.70;99.90;;;;;;4995913;28;20050;-68
2022/12/24 00:59:12;;;;;;;11.13;2.08;;;10.70;99.90;;;;;;4995881;28;20032;-68
2022/12/24 01:01:37;;;;;;;16.92;2.83;;;10.70;99.90;;;;;;4996716;28;20030;-68
2022/12/24 01:06:47;;;;;;;10.60;1.70;;;10.80;99.90;;;;;;4996871;28;20108;-68
2022/12/24 01:09:12;;;;;;;12.77;2.10;;;10.80;99.90;;;;;;4996118;28;20455;-68
2022/12/24 01:11:38;;;;;;;12.05;2.03;;;10.80;99.90;;;;;;4995257;28;20054;-68
2022/12/24 01:14:03;;;;;;;9.82;1.50;;;10.90;99.90;;;;;;4996417;28;20025;-68
2022/12/24 01:16:29;;;;;;;12.20;1.30;;;10.90;99.90;;;;;;4996609;28;20022;-68
2022/12/24 01:18:55;;;;;;;9.02;1.55;;;10.90;99.90;;;;;;4995480;28;20026;-68
2022/12/24 01:21:21;;;;;;;9.68;1.63;;;10.90;99.90;;;;;;4995124;28;20030;-68
2022/12/24 01:23:46;;;;;;;10.32;1.83;;;10.90;99.90;;;;;;4996386;28;20034;-68
2022/12/24 01:26:12;;;;;;;7.75;1.98;;;10.80;99.90;;;;;;4994985;28;20030;-68
2022/12/24 01:28:37;;;;;;;12.43;1.73;;;10.80;99.90;;;;;;4995962;28;20031;-68
2022/12/24 01:31:13;;;;;;;14.13;1.88;;;10.80;99.90;;;;;;4996226;28;20030;-68
2022/12/24 01:33:39;;;;;;;18.33;3.15;;;10.80;99.90;;;;;;4996294;28;20014;-68
2022/12/24 01:36:05;;;;;;;12.65;2.05;;;10.70;99.90;;;;;;4996364;28;20022;-68
2022/12/24 01:38:31;;;;;;;10.60;2.03;;;10.70;99.90;;;;;;4994772;28;20133;-68
2022/12/24 01:43:40;;;;;;;9.35;1.63;;;10.70;99.90;;;;;;4995876;28;20114;-68
2022/12/24 01:46:18;;;;;;;10.77;1.77;;;10.60;99.90;;;;;;4996174;28;20101;-68
2022/12/24 01:48:50;;;;;;;12.32;2.03;;;10.60;99.90;;;;;;4996154;28;20022;-68
2022/12/24 01:51:36;;;;;;;7.65;1.55;;;10.70;99.90;;;;;;4995862;28;20018;-68
2022/12/24 01:54:10;;;;;;;11.07;2.50;;;10.70;99.90;;;;;;4995795;28;20015;-68
2022/12/24 01:56:42;;;;;;;15.82;2.53;;;10.70;99.90;;;;;;4995251;28;20085;-68
2022/12/24 01:59:09;;;;;;;;;;;10.60;99.90;;;;;;4994926;28;20037;-68
2022/12/24 02:01:35;;;;;;;11.57;1.20;;;10.50;99.90;;;;;;4995961;28;19913;-68
2022/12/24 02:04:11;;;;;;;12.05;1.67;;;10.60;99.90;;;;;;5057834;23;20073;-69
2022/12/24 02:06:36;;;;;;;9.27;1.38;;;10.60;99.90;;;;;;5031740;28;20060;-69
2022/12/24 02:09:02;;;;;;;6.78;1.33;;;10.60;99.90;;;;;;5022672;28;20082;-69
2022/12/24 02:11:29;;;;;;;9.25;1.35;;;10.50;99.90;;;;;;5035277;28;20057;-69
2022/12/24 02:13:59;;;;;;;8.20;2.00;;;10.40;99.90;;;;;;5040875;28;20352;-70
2022/12/24 02:16:49;;;;;;;7.78;1.08;;;10.50;99.90;;;;;;5053517;28;20028;-70
2022/12/24 02:19:33;;;;;;;9.25;1.92;;;10.40;99.90;;;;;;5054597;28;20025;-70
2022/12/24 02:22:19;;;;;;;11.38;1.90;;;10.50;99.90;;;;;;5054502;28;20063;-70
2022/12/24 02:24:57;;;;;;;6.25;1.52;;;10.60;99.90;;;;;;5055647;28;20031;-70
2022/12/24 02:27:33;;;;;;;10.40;2.10;;;10.70;99.90;;;;;;5054634;28;20037;-70
2022/12/24 02:30:27;;;;;;;11.60;1.48;;;10.80;99.90;;;;;;5053325;28;20060;-70
2022/12/24 02:33:11;;;;;;;7.28;1.60;;;10.90;99.90;;;;;;5053368;28;20070;-69
2022/12/24 02:35:47;;;;;;;11.27;1.70;;;10.80;99.90;;;;;;5053214;28;20036;-69
2022/12/24 02:38:21;;;;;;;7.07;1.73;;;10.70;99.90;;;;;;5054603;28;20033;-69
2022/12/24 02:40:55;;;;;;;14.38;1.58;;;10.70;99.90;;;;;;5053397;28;20056;-69
2022/12/24 02:43:26;;;;;;;10.23;2.40;;;10.70;99.90;;;;;;5053191;28;20032;-69
2022/12/24 02:45:57;;;;;;;12.27;1.58;;;10.70;99.90;;;;;;5053843;28;20028;-69
2022/12/24 02:48:24;;;;;;;18.13;2.25;;;10.70;99.90;;;;;;5053199;28;20115;-69
2022/12/24 02:51:04;;;;;;;10.68;1.38;;;10.70;99.90;;;;;;5053173;28;20021;-69
2022/12/24 02:53:30;;;;;;;11.18;2.20;;;10.70;99.90;;;;;;5053341;28;20021;-70
2022/12/24 02:56:03;;;;;;;6.43;1.48;;;10.80;99.90;;;;;;5054193;28;20021;-70
2022/12/24 02:58:57;;;;;;;14.10;2.72;;;10.80;99.90;;;;;;5052879;28;20047;-70
2022/12/24 03:01:37;;;;;;;10.73;1.52;;;10.80;99.90;;;;;;5052669;28;20442;-70
2022/12/24 03:04:38;;;;;;;11.93;1.45;;;10.80;99.90;;;;;;5052619;28;20032;-70
2022/12/24 03:07:15;;;;;;;16.73;3.08;;;10.90;99.90;;;;;;5052604;28;20044;-70
2022/12/24 03:10:08;;;;;;;12.93;1.80;;;10.90;99.90;;;;;;5052085;28;20032;-70
2022/12/24 03:12:54;;;;;;;17.75;2.33;;;10.90;99.90;;;;;;5053263;28;20025;-70
2022/12/24 03:15:22;;;;;;;20.42;2.42;;;10.80;99.90;;;;;;5052780;28;20032;-70
2022/12/24 03:17:51;;;;;;;11.65;2.92;;;10.80;99.90;;;;;;5053205;28;20025;-70
2022/12/24 03:20:41;;;;;;;8.68;1.92;;;10.70;99.90;;;;;;5052389;28;20029;-70
2022/12/24 03:23:07;;;;;;;7.65;1.70;;;10.60;99.90;;;;;;5053734;28;20052;-70
2022/12/24 03:25:34;;;;;;;12.70;1.60;;;10.60;99.90;;;;;;5053458;28;20526;-70
2022/12/24 03:28:03;;;;;;;9.52;1.35;;;10.60;99.90;;;;;;5052384;28;20040;-70
2022/12/24 03:30:29;;;;;;;8.48;1.25;;;10.60;99.90;;;;;;5052331;28;20028;-70
2022/12/24 03:32:55;;;;;;;16.77;1.70;;;10.60;99.90;;;;;;5052388;28;20021;-70
2022/12/24 03:35:21;;;;;;;11.15;1.88;;;10.60;99.90;;;;;;5053063;28;20021;-70
2022/12/24 03:37:46;;;;;;;14.80;2.90;;;10.60;99.90;;;;;;5053218;28;20032;-70
2022/12/24 03:40:12;;;;;;;7.43;1.55;;;10.60;99.90;;;;;;5052089;28;20029;-70
2022/12/24 03:42:41;;;;;;;11.55;1.73;;;10.60;99.90;;;;;;5051869;28;20099;-70
2022/12/24 03:45:07;;;;;;;16.95;1.58;;;10.50;99.90;;;;;;5052006;28;20035;-70
2022/12/24 03:47:33;;;;;;;9.48;1.73;;;10.60;99.90;;;;;;5051868;28;20021;-70
2022/12/24 03:49:58;;;;;;;9.50;1.98;;;10.60;99.90;;;;;;5051772;28;20047;-70
2022/12/24 03:52:24;;;;;;;15.25;1.95;;;10.60;99.90;;;;;;5051943;28;20025;-70
2022/12/24 03:54:50;;;;;;;13.95;2.22;;;10.60;99.90;;;;;;5051873;28;20017;-70
2022/12/24 03:57:15;;;;;;;10.98;1.55;;;10.70;99.90;;;;;;5052008;28;20028;-70
2022/12/24 03:59:41;;;;;;;9.70;1.52;;;10.80;99.90;;;;;;5052098;28;20033;-70
2022/12/24 04:02:06;;;;;;;5.82;1.80;;;10.80;99.90;;;;;;5052491;28;20032;-70
2022/12/24 04:04:35;;;;;;;15.75;1.77;;;10.80;99.90;;;;;;5052905;28;20041;-70
2022/12/24 04:07:01;;;;;;;12.05;1.80;;;10.80;99.90;;;;;;5052966;28;20063;-70
2022/12/24 04:09:26;;;;;;;19.40;1.80;;;10.80;99.90;;;;;;5051586;28;20060;-70
2022/12/24 04:11:52;;;;;;;9.52;1.55;;;10.80;99.90;;;;;;5051720;28;20017;-70
2022/12/24 04:14:17;;;;;;;11.93;1.98;;;10.80;99.90;;;;;;5051291;28;20017;-70
2022/12/24 04:16:43;;;;;;;5.90;1.27;;;10.80;99.90;;;;;;5052944;28;20047;-70
2022/12/24 04:19:08;;;;;;;13.05;2.10;;;10.80;99.90;;;;;;5051608;28;20028;-70
2022/12/24 04:21:37;;;;;;;10.48;1.77;;;10.80;99.90;;;;;;5054229;28;20021;-70
2022/12/24 04:24:02;;;;;;;12.23;1.85;;;10.90;99.90;;;;;;5055988;28;20025;-70
2022/12/24 04:26:28;;;;;;;12.05;1.63;;;10.80;99.90;;;;;;5056704;28;20040;-70
2022/12/24 04:28:54;;;;;;;13.82;1.95;;;10.80;99.90;;;;;;5055401;28;20025;-70
2022/12/24 04:31:19;;;;;;;9.15;1.60;;;10.80;99.90;;;;;;5056772;28;20029;-70
2022/12/24 04:33:45;;;;;;;7.90;1.73;;;10.80;99.90;;;;;;5056663;28;20403;-70
2022/12/24 04:36:15;;;;;;;17.88;2.40;;;10.80;99.90;;;;;;5055871;28;20052;-70
2022/12/24 04:38:41;;;;;;;12.38;1.60;;;10.90;99.90;;;;;;5056260;28;20029;-70
2022/12/24 04:41:10;;;;;;;11.00;1.75;;;10.80;99.90;;;;;;5055434;28;20017;-70
2022/12/24 04:43:36;;;;;;;10.55;2.08;;;10.90;99.90;;;;;;5054966;28;20025;-70
2022/12/24 04:46:17;;;;;;;10.40;1.95;;;10.90;99.90;;;;;;5056730;28;20025;-70
2022/12/24 04:48:48;;;;;;;9.60;1.20;;;10.80;99.90;;;;;;5056243;28;20033;-70
2022/12/24 04:51:14;;;;;;;13.05;1.75;;;10.80;99.90;;;;;;5056351;28;20021;-70
2022/12/24 04:53:40;;;;;;;15.90;2.70;;;10.70;99.90;;;;;;5054961;28;20091;-70
2022/12/24 04:56:15;;;;;;;10.02;1.60;;;10.80;99.90;;;;;;5055068;28;20365;-69
2022/12/24 04:58:40;;;;;;;15.20;2.20;;;10.70;99.90;;;;;;5056566;28;20029;-69
2022/12/24 05:01:10;;;;;;;19.40;2.05;;;10.70;99.90;;;;;;5055218;28;20096;-69
2022/12/24 05:03:35;;;;;;;7.72;1.73;;;10.60;99.90;;;;;;5054537;28;20148;-69
2022/12/24 05:06:06;;;;;;;18.10;2.85;;;10.60;99.90;;;;;;5056708;28;20064;-70
2022/12/24 05:08:33;;;;;;;14.60;1.77;;;10.50;99.90;;;;;;5056022;28;20022;-70
2022/12/24 05:10:59;;;;;;;21.65;3.75;;;10.50;99.90;;;;;;5055197;28;20060;-70
2022/12/24 05:13:25;;;;;;;12.73;2.00;;;10.50;99.90;;;;;;5054469;28;20029;-70
2022/12/24 05:15:51;;;;;;;13.75;2.08;;;10.50;99.90;;;;;;5054643;28;20024;-70
2022/12/24 05:18:17;;;;;;;9.13;1.67;;;10.50;99.90;;;;;;5056115;28;20388;-70
2022/12/24 05:20:43;;;;;;;11.15;1.65;;;10.50;99.90;;;;;;5054898;28;20033;-70
2022/12/24 05:26:22;;;;;;;9.25;1.70;;;10.50;99.90;;;;;;5055877;28;20036;-70
2022/12/24 05:28:56;;;;;;;14.32;2.17;;;10.50;99.90;;;;;;5055595;28;20112;-69
2022/12/24 05:31:24;;;;;;;9.43;1.80;;;10.50;99.90;;;;;;5055500;28;20036;-69
2022/12/24 05:33:49;;;;;;;6.47;1.45;;;10.40;99.90;;;;;;5055083;28;20036;-69
2022/12/24 05:36:16;;;;;;;11.88;2.90;;;10.40;99.90;;;;;;5054293;28;20021;-69
2022/12/24 05:38:41;;;;;;;8.25;1.80;;;10.50;99.90;;;;;;5054219;28;20064;-69
2022/12/24 05:41:08;;;;;;;12.10;2.17;;;10.40;99.90;;;;;;5054402;28;20053;-69
2022/12/24 05:43:35;;;;;;;10.60;2.40;;;10.40;99.90;;;;;;5054906;28;20028;-70
2022/12/24 05:46:08;;;;;;;20.20;3.00;;;10.30;99.90;;;;;;5054025;28;20028;-70
2022/12/24 05:48:34;;;;;;;10.38;2.08;;;10.20;99.90;;;;;;5055473;28;20033;-70
2022/12/24 05:51:03;;;;;;;8.85;2.00;;;10.20;99.90;;;;;;5054816;28;20025;-70
2022/12/24 05:53:29;;;;;;;16.10;2.13;;;10.20;99.90;;;;;;5055197;28;20086;-70
2022/12/24 05:56:00;;;;;;;13.25;2.13;;;10.10;99.90;;;;;;5053910;28;20460;-70
2022/12/24 05:58:26;;;;;;;9.68;2.03;;;10.10;99.90;;;;;;5055530;28;20021;-70
2022/12/24 06:00:53;;;;;;;9.85;2.60;;;10.10;99.90;;;;;;5054221;28;20044;-69
2022/12/24 06:03:18;;;;;;;19.67;2.67;;;10.10;99.90;;;;;;5053744;28;20021;-69
2022/12/24 06:05:44;;;;;;;11.95;2.47;;;10.10;99.90;;;;;;5053662;28;20035;-69
2022/12/24 06:08:09;;;;;;;10.80;2.95;;;10.10;99.90;;;;;;5054071;28;20082;-69
2022/12/24 06:10:35;;;;;;;14.32;2.17;;;10.00;99.90;;;;;;5053622;28;20028;-69
2022/12/24 06:13:00;;;;;;;18.77;2.78;;;9.90;99.90;;;;;;5054892;28;20021;-69
2022/12/24 06:15:26;;;;;;;9.52;1.92;;;9.80;99.90;;;;;;5053493;28;20113;-69
2022/12/24 06:17:51;;;;;;;11.65;2.53;;;9.80;99.90;;;;;;5053907;28;20025;-69
2022/12/24 06:20:17;;;;;;;8.85;1.85;;;9.80;99.90;;;;;;5053601;28;20056;-69
2022/12/24 06:22:42;;;;;;;14.50;2.20;;;9.80;99.90;;;;;;5054535;28;20028;-69
2022/12/24 06:25:08;;;;;;;13.15;2.38;;;9.90;99.90;;;;;;5054560;28;20025;-69
2022/12/24 06:27:34;;;;;;;10.57;1.52;;;9.90;99.90;;;;;;5054919;28;20044;-69
2022/12/24 06:29:59;;;;;;;14.90;2.08;;;10.00;99.90;;;;;;5053214;28;20048;-69
2022/12/24 06:32:25;;;;;;;7.72;1.45;;;10.10;99.90;;;;;;5053300;28;20499;-69
2022/12/24 06:34:50;;;;;;;7.65;1.00;;;10.10;99.90;;;;;;5053297;28;20017;-69
2022/12/24 06:37:18;;;;;;;6.95;1.10;;;10.00;99.90;;;;;;5054281;28;20359;-69
2022/12/24 06:39:45;;;;;;;6.10;1.08;;;10.00;99.90;;;;;;5054309;28;20163;-69
2022/12/24 06:42:11;;;;;;;6.05;1.13;;;10.00;99.90;;;;;;5053147;28;20112;-69
2022/12/24 06:44:37;;;;;;;4.68;0.82;;;9.90;99.90;;;;;;5052344;28;20033;-69
2022/12/24 06:47:03;;;;;;;7.53;1.17;;;9.90;99.90;;;;;;5053054;28;20036;-69
2022/12/24 06:49:31;;;;;;;3.17;0.65;;;9.80;99.90;;;;;;5054181;28;20117;-69
2022/12/24 06:51:56;;;;;;;3.00;0.70;;;9.80;99.90;;;;;;5052909;28;20025;-69
2022/12/24 06:54:22;;;;;;;5.60;0.65;;;9.70;99.90;;;;;;5054142;28;20056;-69
2022/12/24 06:56:47;;;;;;;3.20;1.15;;;9.70;99.90;;;;;;5054283;28;20032;-70
2022/12/24 06:59:13;;;;;;;4.38;1.40;;;9.60;99.90;;;;;;5054367;28;20028;-70
2022/12/24 07:01:38;;;;;;;4.18;1.00;;;9.60;99.90;;;;;;5052840;28;20021;-70
2022/12/24 07:04:04;;;;;;;9.75;1.20;;;9.50;99.90;;;;;;5054265;28;20048;-70
2022/12/24 07:06:30;;;;;;;9.68;1.27;;;9.40;99.90;;;;;;5053065;28;20044;-70
2022/12/24 07:08:55;;;;;;;6.72;0.80;;;9.40;99.90;;;;;;5054575;28;20033;-70
2022/12/24 07:11:23;;;;;;;4.88;1.05;;;9.30;99.90;;;;;;5053313;28;20116;-70
2022/12/24 07:13:48;;;;;;;3.22;0.98;;;9.30;99.90;;;;;;5053141;28;20029;-70
2022/12/24 07:16:14;;;;;;;7.57;1.10;;;9.20;99.90;;;;;;5052961;28;20028;-70
2022/12/24 07:18:40;;;;;;;4.45;1.20;;;9.20;99.90;;;;;;5053311;28;20021;-70
2022/12/24 07:21:06;;;;;;;4.57;1.13;;;9.20;99.90;;;;;;5054354;28;20032;-70
2022/12/24 07:23:32;;;;;;;5.80;1.27;;;9.10;99.90;;;;;;5053719;28;20024;-70
2022/12/24 07:26:03;;;;;;;6.15;1.13;;;9.20;99.90;;;;;;5052550;28;20484;-70
2022/12/24 07:28:29;;;;;;;2.67;0.80;;;9.20;99.90;;;;;;5052272;28;20017;-70
2022/12/24 07:30:56;;;;;;;4.93;1.10;;;9.30;99.90;;;;;;5052164;28;20021;-70
2022/12/24 07:33:22;;;;;;;7.18;1.10;;;9.20;99.90;;;;;;5052006;28;20053;-69
2022/12/24 07:35:47;;;;;;;5.45;1.10;;;9.20;99.90;;;;;;5052482;28;20092;-69
2022/12/24 07:38:13;;;;;;;2.42;1.10;;;9.20;99.90;;;;;;5053732;28;20099;-69
2022/12/24 07:40:38;;;;;;;3.13;0.65;;;9.20;99.90;;;;;;5053048;28;20029;-69
2022/12/24 07:43:04;;;;;;;5.55;1.30;;;9.10;99.90;;;;;;5052091;28;20021;-69
2022/12/24 07:45:29;;;;;;;3.92;0.90;;;9.10;99.90;;;;;;5052032;28;20029;-69
2022/12/24 07:47:55;;;;;;;2.10;1.10;;;9.10;99.90;;;;;;5051953;28;20025;-69
2022/12/24 07:50:20;;;;;;;8.27;1.35;;;9.10;99.90;;;;;;5051848;28;20025;-69
2022/12/24 07:52:46;;;;;;;9.38;1.30;;;9.10;99.90;;;;;;5053233;28;20029;-69
2022/12/24 07:55:11;;;;;;;6.85;2.03;;;9.10;99.90;;;;;;5051780;28;20032;-69
2022/12/24 07:57:37;;;;;;;6.93;1.60;;;9.20;99.90;;;;;;5051945;28;20028;-69
2022/12/24 08:00:03;;;;;;;13.00;1.98;;;9.20;99.90;;;;;;5051839;28;20028;-69
2022/12/24 08:02:30;;;;;;;13.98;2.95;;;9.30;99.90;;;;;;5051854;28;20026;-70
2022/12/24 08:04:55;;;;;;;8.07;1.70;;;9.30;99.90;;;;;;5049543;22;20042;-69
2022/12/24 08:07:21;;;;;;;11.75;2.10;;;9.40;99.90;;;;;;5014645;28;20032;-70
2022/12/24 08:09:46;;;;;;;11.10;2.42;;;9.50;99.90;;;;;;5029633;28;20034;-70
2022/12/24 08:12:12;;;;;;;7.70;1.70;;;9.60;99.90;;;;;;5028881;28;20025;-70
2022/12/24 08:14:37;;;;;;;20.42;4.70;;;9.60;99.90;;;;;;5013174;28;20033;-70
2022/12/24 08:17:03;;;;;;;14.48;3.65;;;9.70;99.90;;;;;;5012101;28;20033;-70
2022/12/24 08:19:28;;;;;;;14.38;2.90;;;9.70;99.90;;;;;;5012209;28;20030;-70
2022/12/24 08:21:59;;;;;;;8.68;1.88;;;9.80;99.90;;;;;;5012475;28;20029;-70
2022/12/24 08:24:24;;;;;;;7.53;1.73;;;9.80;99.90;;;;;;5011923;28;20026;-70
2022/12/24 08:26:50;;;;;;;11.55;2.58;;;9.90;99.90;;;;;;5011689;28;20030;-70
2022/12/24 08:29:16;;;;;;;10.68;2.10;;;10.00;99.90;;;;;;5014097;28;20026;-70
2022/12/24 08:32:11;;;;;;;16.50;1.98;;;10.00;99.90;;;;;;5013144;28;20002;-69
2022/12/24 08:34:37;;;;;;;11.80;1.83;;;10.10;99.90;;;;;;5011960;28;20033;-68
2022/12/24 08:37:02;;;;;;;7.40;1.95;;;10.10;99.90;;;;;;5019401;28;20448;-68
2022/12/24 08:39:28;;;;;;;18.52;2.40;;;10.20;99.90;;;;;;5032018;28;20083;-68
2022/12/24 08:41:53;;;;;;;6.90;1.90;;;10.20;99.90;;;;;;5031570;28;20072;-68
2022/12/24 08:44:19;;;;;;;8.27;1.63;;;10.20;99.90;;;;;;5032051;28;20376;-69
2022/12/24 08:46:45;;;;;;;13.90;2.10;;;10.20;99.90;;;;;;5032658;28;20484;-69
2022/12/24 08:49:11;;;;;;;9.48;2.38;;;10.10;99.90;;;;;;5032622;28;20021;-68
2022/12/24 08:51:36;;;;;;;16.50;2.72;;;10.10;99.90;;;;;;5031525;28;20132;-68
2022/12/24 08:54:02;;;;;;;12.05;2.33;;;10.10;99.90;;;;;;5032947;28;20034;-69
2022/12/24 08:56:27;;;;;;;15.40;2.53;;;10.10;99.90;;;;;;5031686;28;20048;-68
2022/12/24 08:58:53;;;;;;;12.75;2.70;;;10.00;99.90;;;;;;5032742;28;20384;-68
2022/12/24 09:01:19;;;;;;;11.50;1.95;;;10.10;99.90;;;;;;5032712;28;20021;-68
2022/12/24 09:03:45;;;;;;;17.85;3.00;;;10.10;99.90;;;;;;5032652;28;20022;-68
2022/12/24 09:06:12;;;;;;;11.80;2.75;;;10.10;99.90;;;;;;5031838;28;20388;-69
2022/12/24 09:08:37;;;;;;;13.68;2.67;;;10.20;99.90;;;;;;5034945;28;20044;-69
2022/12/24 09:11:09;;;;;;;11.20;1.92;;;10.20;99.90;;;;;;5033674;28;20472;-68
2022/12/24 09:13:36;;;;;;;14.52;2.85;;;10.20;99.90;;;;;;5015657;28;20061;-69
2022/12/24 09:16:02;;;;;;;11.27;2.63;;;10.20;99.90;;;;;;5015985;28;20022;-69
2022/12/24 09:18:28;;;;;;;17.50;2.75;;;10.10;99.90;;;;;;5014652;28;20018;-69
2022/12/24 09:21:00;;;;;;;13.68;2.55;;;10.20;99.90;;;;;;5011757;28;20023;-69
2022/12/24 09:23:27;;;;;;;14.23;2.38;;;10.20;99.90;;;;;;5016242;28;20104;-69
2022/12/24 09:25:52;;;;;;;8.90;1.85;;;10.20;99.90;;;;;;5014902;28;20026;-69
2022/12/24 09:28:18;;;;;;;13.40;2.80;;;10.20;99.90;;;;;;5011146;28;20030;-69
2022/12/24 09:30:44;;;;;;;13.70;2.17;;;10.10;99.90;;;;;;5005166;28;20086;-69
2022/12/24 09:33:09;;;;;;;13.45;3.13;;;10.10;99.90;;;;;;5014692;28;20022;-69
2022/12/24 09:35:37;;;;;;;11.18;3.38;;;10.10;99.90;;;;;;5014761;28;20053;-69
2022/12/24 09:38:02;;;;;;;7.30;2.97;;;10.10;99.90;;;;;;5015569;28;20081;-69
2022/12/24 09:40:36;;;;;;;18.35;3.33;;;10.20;99.90;;;;;;5015213;28;20512;-69
2022/12/24 09:43:20;;;;;;;9.18;2.55;;;10.30;99.90;;;;;;5015372;28;20030;-69
2022/12/24 09:46:16;;;;;;;13.32;2.75;;;10.40;99.90;;;;;;5014086;28;20121;-68
2022/12/24 09:48:46;;;;;;;18.85;3.10;;;10.50;99.90;;;;;;4995657;28;20058;-68
2022/12/24 09:51:23;;;;;;;8.35;2.40;;;10.60;99.90;;;;;;4995579;28;20030;-68
2022/12/24 09:54:04;;;;;;;27.45;3.38;;;10.70;99.90;;;;;;4999482;28;20072;-69
2022/12/24 09:56:37;;;;;;;11.77;2.85;;;10.80;99.90;;;;;;5013855;28;20036;-69
2022/12/24 09:59:05;;;;;;;12.32;1.85;;;10.80;99.90;;;;;;5014732;28;20034;-69
2022/12/24 10:01:33;;;;;;;18.52;3.80;;;11.00;99.90;;;;;;5010509;28;20118;-70
2022/12/24 10:04:17;;;;;;;16.15;2.90;;;11.10;99.90;;;;;;5011314;28;20049;-69
2022/12/24 10:07:05;;;;;;;15.32;2.67;;;11.10;99.90;;;;;;5011118;28;20096;-70
2022/12/24 10:09:57;;;;;;;13.35;2.25;;;11.10;99.90;;;;;;4994425;28;20026;-70
2022/12/24 10:12:48;;;;;;;11.27;2.10;;;11.20;99.90;;;;;;5011604;28;20058;-70
2022/12/24 10:15:39;;;;;;;16.37;3.33;;;11.20;99.90;;;;;;5011756;28;20069;-69
2022/12/24 10:18:14;;;;;;;13.17;1.83;;;11.30;99.90;;;;;;5013609;28;20303;-69
2022/12/24 10:20:49;;;;;;;8.35;2.13;;;11.30;99.90;;;;;;5020663;28;20034;-70
2022/12/24 10:23:21;;;;;;;18.85;3.75;;;11.40;99.90;;;;;;5019196;28;20033;-70
2022/12/24 10:26:04;;;;;;;13.85;2.78;;;11.40;99.90;;;;;;5030261;28;20030;-70
2022/12/24 10:28:52;;;;;;;9.30;2.30;;;11.40;99.90;;;;;;5020264;28;20033;-70
2022/12/24 10:31:32;;;;;;;15.70;2.80;;;11.40;99.90;;;;;;5021661;28;20057;-70
2022/12/24 10:34:01;;;;;;;11.98;2.05;;;11.60;99.90;;;;;;5013494;28;20073;-70
2022/12/24 10:36:29;;;;;;;12.63;2.70;;;11.70;99.90;;;;;;5013447;28;20117;-69
2022/12/24 10:38:55;;;;;;;14.75;2.42;;;11.70;99.90;;;;;;5012680;28;20018;-69
2022/12/24 10:41:21;;;;;;;6.47;2.03;;;11.70;99.90;;;;;;5029335;28;20495;-69
2022/12/24 10:43:47;;;;;;;9.40;1.90;;;11.90;99.90;;;;;;5021760;28;20101;-68
2022/12/24 10:46:24;;;;;;;12.00;2.30;;;11.90;99.90;;;;;;5026302;28;20053;-69
2022/12/24 10:49:03;;;;;;;11.85;2.60;;;11.90;99.90;;;;;;5033322;28;20071;-69
2022/12/24 10:51:36;;;;;;;14.43;3.03;;;11.80;99.90;;;;;;5026984;28;20018;-69
2022/12/24 10:54:12;;;;;;;16.50;2.20;;;11.80;99.90;;;;;;5013350;28;20021;-70
2022/12/24 10:56:43;;;;;;;11.60;1.63;;;11.80;99.90;;;;;;5013078;28;20110;-69
2022/12/24 10:59:48;;;;;;;7.63;2.53;;;11.80;99.90;;;;;;5013368;28;20034;-70
2022/12/24 11:02:32;;;;;;;10.05;1.98;;;11.80;99.90;;;;;;4992737;28;20094;-70
2022/12/24 11:05:00;;;;;;;17.55;2.25;;;11.70;99.90;;;;;;4984420;28;20066;-70
2022/12/24 11:07:28;;;;;;;11.57;2.17;;;11.80;99.90;;;;;;4986376;28;20042;-69
2022/12/24 11:09:55;;;;;;;12.27;1.80;;;11.80;99.90;;;;;;4988772;28;20034;-69
2022/12/24 11:12:24;;;;;;;17.52;3.25;;;11.80;99.90;;;;;;4976297;28;20058;-70
2022/12/24 11:15:06;;;;;;;9.30;1.33;;;11.70;99.90;;;;;;4975978;28;20086;-69
2022/12/24 11:17:32;;;;;;;15.07;1.83;;;11.70;99.90;;;;;;4992327;28;20039;-69
2022/12/24 11:19:59;;;;;;;12.43;1.85;;;11.70;99.90;;;;;;4992037;28;20502;-69
2022/12/24 11:22:28;;;;;;;9.63;2.15;;;11.70;99.90;;;;;;4993406;28;20109;-70
2022/12/24 11:25:16;;;;;;;9.30;2.13;;;11.70;99.90;;;;;;4985556;28;20033;-70
2022/12/24 11:27:48;;;;;;;15.95;1.75;;;11.70;99.90;;;;;;4995597;28;20117;-69
2022/12/24 11:30:13;;;;;;;8.90;2.42;;;11.70;99.90;;;;;;4994885;28;20508;-69
2022/12/24 11:32:43;;;;;;;9.82;1.60;;;11.70;99.90;;;;;;4995141;28;20026;-69
2022/12/24 11:35:31;;;;;;;11.80;1.83;;;11.70;99.90;;;;;;4979516;28;20028;-69
2022/12/24 11:37:59;;;;;;;15.65;2.58;;;11.60;99.90;;;;;;4993366;28;20031;-69
2022/12/24 11:40:40;;;;;;;13.45;1.65;;;11.70;99.90;;;;;;5008136;28;20021;-69
2022/12/24 11:43:15;;;;;;;10.95;2.00;;;11.60;99.90;;;;;;5032694;28;20035;-69
2022/12/24 11:45:51;;;;;;;8.45;1.83;;;11.70;99.90;;;;;;5016764;28;20465;-70
2022/12/24 11:48:33;;;;;;;13.10;2.25;;;11.70;99.90;;;;;;5013596;28;20018;-69
2022/12/24 11:51:02;;;;;;;10.07;1.73;;;11.70;99.90;;;;;;5012715;28;20028;-69
2022/12/24 11:53:35;;;;;;;8.57;1.73;;;11.70;99.90;;;;;;5012397;28;20022;-69
2022/12/24 11:56:06;;;;;;;13.65;2.22;;;11.80;99.90;;;;;;5009447;28;20022;-69
2022/12/24 11:58:37;;;;;;;;;;;11.80;99.90;;;;;;4996377;28;20045;-69
2022/12/24 12:01:24;;;;;;;14.70;2.30;;;11.80;99.90;;;;;;5012650;28;19916;-69
2022/12/24 12:04:06;;;;;;;14.35;1.98;;;11.80;99.90;;;;;;5012088;28;20033;-69
2022/12/24 12:06:44;;;;;;;13.88;1.85;;;11.70;99.90;;;;;;5012701;28;20041;-69
2022/12/24 12:09:13;;;;;;;13.57;2.00;;;11.70;99.90;;;;;;5013442;28;20120;-69
2022/12/24 12:11:42;;;;;;;8.60;1.45;;;11.80;99.90;;;;;;5013030;28;20026;-69
2022/12/24 12:14:15;;;;;;;8.88;1.38;;;11.80;99.90;;;;;;5004045;28;20033;-69
2022/12/24 12:17:21;;;;;;;8.90;1.75;;;11.90;99.90;;;;;;5000053;28;20060;-69
2022/12/24 12:20:08;;;;;;;11.65;2.28;;;11.90;99.90;;;;;;5003574;28;20038;-69
2022/12/24 12:23:02;;;;;;;13.23;2.00;;;11.90;99.90;;;;;;5010265;28;20051;-69
2022/12/24 12:25:36;;;;;;;16.77;2.25;;;11.90;99.90;;;;;;5012535;28;20026;-69
2022/12/24 12:28:05;;;;;;;10.82;2.15;;;11.80;99.90;;;;;;5013372;28;20516;-69
2022/12/24 12:30:32;;;;;;;10.25;2.00;;;11.80;99.90;;;;;;5011829;28;20046;-69
2022/12/24 12:33:16;;;;;;;15.98;2.35;;;11.80;99.90;;;;;;5009450;28;20102;-68
2022/12/24 12:35:43;;;;;;;11.55;1.42;;;11.80;99.90;;;;;;4997639;28;20048;-68
2022/12/24 12:38:24;;;;;;;11.48;2.85;;;11.80;99.90;;;;;;4999813;28;20022;-68
2022/12/24 12:41:14;;;;;;;9.50;2.10;;;11.90;99.90;;;;;;5012670;28;20038;-68
2022/12/24 12:43:46;;;;;;;9.10;1.80;;;11.90;99.90;;;;;;5012933;28;20090;-68
2022/12/24 12:46:26;;;;;;;10.43;1.80;;;12.00;99.90;;;;;;5016122;28;20026;-69
2022/12/24 12:49:11;;;;;;;8.40;1.60;;;12.00;99.90;;;;;;5021195;28;20030;-69
2022/12/24 12:52:02;;;;;;;11.85;2.47;;;12.10;99.90;;;;;;5016139;28;20029;-69
2022/12/24 12:54:46;;;;;;;13.90;1.90;;;12.20;99.90;;;;;;5017628;28;20018;-69
2022/12/24 12:57:17;;;;;;;5.28;1.42;;;12.20;99.90;;;;;;5015308;28;20026;-69
2022/12/24 13:00:26;;;;;;;16.58;2.50;;;12.30;99.90;;;;;;5016727;28;20108;-69
2022/12/24 13:03:36;;;;;;;9.80;1.70;;;12.40;99.90;;;;;;5015841;28;20057;-69
2022/12/24 13:06:24;;;;;;;12.18;2.03;;;12.40;99.90;;;;;;4978332;28;20058;-69
2022/12/24 13:09:08;;;;;;;12.25;2.60;;;12.30;99.90;;;;;;4975778;28;20074;-69